OCN1273 LGSR-EDDM
Flight info
| Callsign | OCN1273 |
|---|---|
| Flight time | N/A |
| Altitude | 36000 |
| Route | MADEX UL53 AKORO UL617 MAKED DCT LONTA UL608 DOLEV DCT GORPA DCT BERTA DCT RASTA DCT REDBU Q112 NAPSA NAPSA4A |
| Aircraft | A320/M-SDE3FGHIRWY/LB1 |
Departure
| Time | 2026-04-22 18:56 |
|---|---|
| Airport | Santorini International Airport (LGSR) |
Arrival
| Time | N/A |
|---|---|
| Airport | Munich Airport (EDDM) |
| Time | Latitude | Longitude | Altitude | Speed | Heading |
|---|---|---|---|---|---|
| 2026-04-22 18:38 | 36.40418 | 25.47340 | 91 ft | 0 kts | 249° |
| 2026-04-22 18:48 | 36.40423 | 25.47355 | 93 ft | 4 kts | 248° |
| 2026-04-22 18:48 | 36.40435 | 25.47384 | 91 ft | 4 kts | 223° |
| 2026-04-22 18:49 | 36.40447 | 25.47391 | 92 ft | 2 kts | 142° |
| 2026-04-22 18:49 | 36.40440 | 25.47398 | 91 ft | 4 kts | 143° |
| 2026-04-22 18:49 | 36.40416 | 25.47413 | 91 ft | 3 kts | 160° |
| 2026-04-22 18:49 | 36.40414 | 25.47413 | 91 ft | 0 kts | 160° |
| 2026-04-22 18:51 | 36.40409 | 25.47434 | 90 ft | 7 kts | 85° |
| 2026-04-22 18:51 | 36.40409 | 25.47514 | 92 ft | 10 kts | 137° |
| 2026-04-22 18:52 | 36.40347 | 25.47546 | 89 ft | 13 kts | 159° |
| 2026-04-22 18:52 | 36.40204 | 25.47612 | 90 ft | 29 kts | 159° |
| 2026-04-22 18:52 | 36.40014 | 25.47702 | 88 ft | 30 kts | 159° |
| 2026-04-22 18:52 | 36.39818 | 25.47795 | 86 ft | 31 kts | 159° |
| 2026-04-22 18:53 | 36.39614 | 25.47892 | 71 ft | 32 kts | 159° |
| 2026-04-22 18:53 | 36.39405 | 25.47994 | 71 ft | 32 kts | 159° |
| 2026-04-22 18:53 | 36.39255 | 25.48064 | 64 ft | 22 kts | 159° |
| 2026-04-22 18:53 | 36.39113 | 25.48129 | 55 ft | 22 kts | 160° |
| 2026-04-22 18:54 | 36.39026 | 25.48169 | 55 ft | 8 kts | 156° |
| 2026-04-22 18:54 | 36.39007 | 25.48225 | 54 ft | 7 kts | 83° |
| 2026-04-22 18:54 | 36.39019 | 25.48280 | 54 ft | 5 kts | 71° |
| 2026-04-22 18:54 | 36.39038 | 25.48321 | 55 ft | 8 kts | 35° |
| 2026-04-22 18:55 | 36.39069 | 25.48314 | 54 ft | 0 kts | 338° |
| 2026-04-22 18:55 | 36.39146 | 25.48277 | 52 ft | 45 kts | 339° |
| 2026-04-22 18:55 | 36.39675 | 25.48032 | 71 ft | 114 kts | 339° |
| 2026-04-22 18:55 | 36.40576 | 25.47606 | 237 ft | 152 kts | 339° |
| 2026-04-22 18:56 | 36.41558 | 25.47191 | 986 ft | 148 kts | 343° |
| 2026-04-22 18:56 | 36.42573 | 25.46881 | 1520 ft | 158 kts | 341° |
| 2026-04-22 18:56 | 36.43699 | 25.46548 | 1822 ft | 174 kts | 340° |
| 2026-04-22 18:56 | 36.44905 | 25.46180 | 2216 ft | 183 kts | 340° |
| 2026-04-22 18:57 | 36.46222 | 25.45766 | 2352 ft | 209 kts | 341° |
| 2026-04-22 18:57 | 36.47694 | 25.45293 | 2683 ft | 229 kts | 341° |
| 2026-04-22 18:57 | 36.49284 | 25.44801 | 3163 ft | 245 kts | 342° |
| 2026-04-22 18:57 | 36.50998 | 25.44278 | 3670 ft | 260 kts | 342° |
| 2026-04-22 18:58 | 36.52774 | 25.43734 | 4463 ft | 265 kts | 342° |
| 2026-04-22 18:58 | 36.54579 | 25.43174 | 5209 ft | 270 kts | 342° |
| 2026-04-22 18:58 | 36.56418 | 25.42600 | 5972 ft | 274 kts | 342° |
| 2026-04-22 18:58 | 36.58280 | 25.42018 | 6735 ft | 278 kts | 341° |
| 2026-04-22 18:59 | 36.60023 | 25.41099 | 7463 ft | 276 kts | 326° |
| 2026-04-22 18:59 | 36.61685 | 25.39896 | 8298 ft | 277 kts | 326° |
| 2026-04-22 18:59 | 36.63350 | 25.38678 | 9094 ft | 278 kts | 326° |
| 2026-04-22 18:59 | 36.65024 | 25.37455 | 9882 ft | 280 kts | 327° |
| 2026-04-22 19:00 | 36.66761 | 25.36247 | 10319 ft | 296 kts | 328° |
| 2026-04-22 19:00 | 36.68640 | 25.34983 | 10517 ft | 318 kts | 329° |
| 2026-04-22 19:00 | 36.70664 | 25.33638 | 10658 ft | 341 kts | 329° |
| 2026-04-22 19:00 | 36.72815 | 25.32211 | 10874 ft | 358 kts | 329° |
| 2026-04-22 19:01 | 36.75033 | 25.30742 | 11415 ft | 363 kts | 329° |
| 2026-04-22 19:01 | 36.77274 | 25.29251 | 12057 ft | 366 kts | 328° |
| 2026-04-22 19:01 | 36.79526 | 25.27746 | 12734 ft | 368 kts | 328° |
| 2026-04-22 19:01 | 36.81785 | 25.26232 | 13401 ft | 370 kts | 328° |
| 2026-04-22 19:02 | 36.84067 | 25.24698 | 13862 ft | 377 kts | 328° |
| 2026-04-22 19:02 | 36.86397 | 25.23131 | 14224 ft | 384 kts | 328° |
| 2026-04-22 19:02 | 36.88755 | 25.21538 | 14697 ft | 387 kts | 328° |
| 2026-04-22 19:02 | 36.91131 | 25.19927 | 15091 ft | 392 kts | 328° |
| 2026-04-22 19:03 | 36.93556 | 25.18284 | 15354 ft | 400 kts | 328° |
| 2026-04-22 19:03 | 36.96020 | 25.16622 | 15758 ft | 404 kts | 328° |
| 2026-04-22 19:03 | 36.98502 | 25.14954 | 16194 ft | 406 kts | 328° |
| 2026-04-22 19:03 | 37.00993 | 25.13277 | 16638 ft | 408 kts | 328° |
| 2026-04-22 19:04 | 37.03501 | 25.11587 | 17084 ft | 410 kts | 328° |
| 2026-04-22 19:04 | 37.06020 | 25.09884 | 17543 ft | 412 kts | 328° |
| 2026-04-22 19:04 | 37.08545 | 25.08171 | 17961 ft | 414 kts | 328° |
| 2026-04-22 19:04 | 37.11092 | 25.06441 | 18370 ft | 416 kts | 328° |
| 2026-04-22 19:05 | 37.13640 | 25.04712 | 18714 ft | 418 kts | 328° |
| 2026-04-22 19:05 | 37.16205 | 25.02974 | 19070 ft | 420 kts | 328° |
| 2026-04-22 19:05 | 37.18781 | 25.01225 | 19413 ft | 422 kts | 328° |
| 2026-04-22 19:05 | 37.21361 | 24.99470 | 19747 ft | 423 kts | 328° |
| 2026-04-22 19:06 | 37.23953 | 24.97700 | 20068 ft | 425 kts | 327° |
| 2026-04-22 19:06 | 37.26555 | 24.95921 | 20409 ft | 426 kts | 328° |
| 2026-04-22 19:06 | 37.29159 | 24.94136 | 20748 ft | 428 kts | 327° |
| 2026-04-22 19:07 | 37.34409 | 24.90546 | 21389 ft | 431 kts | 327° |
| 2026-04-22 19:07 | 37.37051 | 24.88743 | 21681 ft | 433 kts | 327° |
| 2026-04-22 19:07 | 37.39694 | 24.86933 | 21974 ft | 434 kts | 327° |
| 2026-04-22 19:07 | 37.42352 | 24.85113 | 22260 ft | 435 kts | 327° |
| 2026-04-22 19:08 | 37.45020 | 24.83288 | 22530 ft | 437 kts | 327° |
| 2026-04-22 19:08 | 37.47700 | 24.81454 | 22809 ft | 438 kts | 327° |
| 2026-04-22 19:08 | 37.50348 | 24.79640 | 23085 ft | 440 kts | 327° |
| 2026-04-22 19:08 | 37.53037 | 24.77797 | 23350 ft | 441 kts | 327° |
| 2026-04-22 19:09 | 37.55737 | 24.75939 | 23620 ft | 443 kts | 327° |
| 2026-04-22 19:09 | 37.58442 | 24.74076 | 23845 ft | 444 kts | 327° |
| 2026-04-22 19:09 | 37.60277 | 24.72810 | 23993 ft | 445 kts | 327° |
| 2026-04-22 19:09 | 37.63875 | 24.70326 | 24288 ft | 446 kts | 327° |
| 2026-04-22 19:10 | 37.66597 | 24.68446 | 24510 ft | 447 kts | 327° |
| 2026-04-22 19:10 | 37.69337 | 24.66571 | 24722 ft | 448 kts | 327° |
| 2026-04-22 19:10 | 37.72083 | 24.64711 | 24937 ft | 449 kts | 327° |
| 2026-04-22 19:10 | 37.74844 | 24.62848 | 25143 ft | 450 kts | 327° |
| 2026-04-22 19:11 | 37.77603 | 24.60981 | 25349 ft | 451 kts | 327° |
| 2026-04-22 19:11 | 37.79474 | 24.59711 | 25489 ft | 452 kts | 327° |
| 2026-04-22 19:11 | 37.83132 | 24.57213 | 25882 ft | 451 kts | 327° |
| 2026-04-22 19:11 | 37.85887 | 24.55330 | 26211 ft | 449 kts | 327° |
| 2026-04-22 19:12 | 37.87743 | 24.54064 | 26435 ft | 448 kts | 327° |
| 2026-04-22 19:12 | 37.90479 | 24.52196 | 26803 ft | 445 kts | 327° |
| 2026-04-22 19:12 | 37.93190 | 24.50344 | 27200 ft | 442 kts | 327° |
| 2026-04-22 19:12 | 37.95892 | 24.48496 | 27593 ft | 440 kts | 327° |
| 2026-04-22 19:13 | 37.98539 | 24.46683 | 27988 ft | 437 kts | 327° |
| 2026-04-22 19:13 | 38.01210 | 24.44855 | 28391 ft | 435 kts | 327° |
| 2026-04-22 19:13 | 38.03859 | 24.43036 | 28806 ft | 432 kts | 327° |
| 2026-04-22 19:13 | 38.06488 | 24.41226 | 29221 ft | 429 kts | 326° |
| 2026-04-22 19:14 | 38.09106 | 24.39422 | 29643 ft | 426 kts | 326° |
| 2026-04-22 19:14 | 38.11703 | 24.37633 | 30076 ft | 423 kts | 326° |
| 2026-04-22 19:14 | 38.14283 | 24.35857 | 30434 ft | 420 kts | 327° |
| 2026-04-22 19:14 | 38.16844 | 24.34094 | 30811 ft | 417 kts | 326° |
| 2026-04-22 19:15 | 38.18560 | 24.32912 | 31062 ft | 414 kts | 326° |
| 2026-04-22 19:15 | 38.21901 | 24.30609 | 31561 ft | 410 kts | 326° |
| 2026-04-22 19:15 | 38.24394 | 24.28888 | 31945 ft | 407 kts | 326° |
| 2026-04-22 19:15 | 38.26873 | 24.27175 | 32334 ft | 403 kts | 326° |
| 2026-04-22 19:16 | 38.29325 | 24.25478 | 32724 ft | 400 kts | 326° |
| 2026-04-22 19:16 | 38.31761 | 24.23789 | 33157 ft | 397 kts | 326° |
| 2026-04-22 19:16 | 38.34174 | 24.22116 | 33569 ft | 393 kts | 326° |
| 2026-04-22 19:16 | 38.36567 | 24.20455 | 33931 ft | 391 kts | 326° |
| 2026-04-22 19:17 | 38.38965 | 24.18785 | 34001 ft | 395 kts | 326° |
| 2026-04-22 19:17 | 38.43852 | 24.15377 | 34009 ft | 405 kts | 326° |
| 2026-04-22 19:18 | 38.48811 | 24.11918 | 34014 ft | 409 kts | 326° |
| 2026-04-22 19:18 | 38.53818 | 24.08439 | 34016 ft | 410 kts | 326° |
| 2026-04-22 19:19 | 38.58818 | 24.04945 | 34022 ft | 408 kts | 326° |
| 2026-04-22 19:19 | 38.63780 | 24.01473 | 34023 ft | 407 kts | 325° |
| 2026-04-22 19:20 | 38.68744 | 23.98001 | 34034 ft | 406 kts | 326° |
| 2026-04-22 19:20 | 38.73697 | 23.94529 | 34037 ft | 406 kts | 326° |
| 2026-04-22 19:20 | 38.76165 | 23.92791 | 34197 ft | 404 kts | 325° |
| 2026-04-22 19:21 | 38.78624 | 23.91058 | 34440 ft | 403 kts | 325° |
| 2026-04-22 19:21 | 38.81078 | 23.89330 | 34679 ft | 402 kts | 325° |
| 2026-04-22 19:21 | 38.83521 | 23.87610 | 34954 ft | 400 kts | 325° |
| 2026-04-22 19:21 | 38.85961 | 23.85894 | 35198 ft | 399 kts | 325° |
| 2026-04-22 19:22 | 38.88392 | 23.84183 | 35449 ft | 398 kts | 325° |
| 2026-04-22 19:22 | 38.90812 | 23.82478 | 35697 ft | 396 kts | 325° |
| 2026-04-22 19:22 | 38.93219 | 23.80776 | 35932 ft | 394 kts | 325° |
| 2026-04-22 19:23 | 38.98049 | 23.77348 | 36030 ft | 400 kts | 325° |
| 2026-04-22 19:23 | 39.02975 | 23.73852 | 36035 ft | 407 kts | 325° |
| 2026-04-22 19:24 | 39.07945 | 23.70332 | 36063 ft | 409 kts | 325° |
| 2026-04-22 19:24 | 39.12876 | 23.66828 | 36034 ft | 395 kts | 324° |
| 2026-04-22 19:25 | 39.17620 | 23.63445 | 36031 ft | 387 kts | 324° |
| 2026-04-22 19:25 | 39.19936 | 23.61790 | 35698 ft | 385 kts | 324° |
| 2026-04-22 19:25 | 39.22272 | 23.60128 | 35125 ft | 383 kts | 324° |
| 2026-04-22 19:25 | 39.24603 | 23.58484 | 34569 ft | 380 kts | 324° |
| 2026-04-22 19:26 | 39.26919 | 23.56865 | 34069 ft | 377 kts | 324° |
| 2026-04-22 19:26 | 39.29215 | 23.55279 | 33600 ft | 371 kts | 324° |
| 2026-04-22 19:26 | 39.31480 | 23.53728 | 33079 ft | 367 kts | 324° |
| 2026-04-22 19:26 | 39.33730 | 23.52206 | 32584 ft | 363 kts | 324° |
| 2026-04-22 19:27 | 39.35957 | 23.50707 | 32076 ft | 357 kts | 321° |
| 2026-04-22 19:27 | 39.37854 | 23.48783 | 31569 ft | 340 kts | 307° |
| 2026-04-22 19:27 | 39.39154 | 23.46299 | 31045 ft | 331 kts | 292° |
| 2026-04-22 19:27 | 39.39794 | 23.43470 | 30520 ft | 328 kts | 278° |
| 2026-04-22 19:28 | 39.39763 | 23.40501 | 29667 ft | 339 kts | 264° |
| 2026-04-22 19:28 | 39.38965 | 23.37572 | 28847 ft | 355 kts | 249° |
| 2026-04-22 19:28 | 39.37420 | 23.34999 | 28168 ft | 373 kts | 232° |
| 2026-04-22 19:28 | 39.35184 | 23.33132 | 27499 ft | 396 kts | 214° |
| 2026-04-22 19:29 | 39.32445 | 23.32218 | 26860 ft | 421 kts | 195° |
| 2026-04-22 19:29 | 39.29456 | 23.32533 | 26290 ft | 443 kts | 175° |
| 2026-04-22 19:29 | 39.26483 | 23.33652 | 25704 ft | 445 kts | 172° |
| 2026-04-22 19:29 | 39.23526 | 23.34826 | 25177 ft | 443 kts | 172° |
| 2026-04-22 19:30 | 39.21588 | 23.35609 | 24845 ft | 440 kts | 172° |
| 2026-04-22 19:30 | 39.17702 | 23.37188 | 24188 ft | 436 kts | 171° |
| 2026-04-22 19:30 | 39.14812 | 23.38331 | 23701 ft | 430 kts | 175° |
| 2026-04-22 19:30 | 39.11881 | 23.38912 | 23098 ft | 429 kts | 183° |
| 2026-04-22 19:31 | 39.08902 | 23.39306 | 22526 ft | 431 kts | 183° |
| 2026-04-22 19:31 | 39.05924 | 23.39702 | 21966 ft | 429 kts | 182° |
| 2026-04-22 19:31 | 39.02973 | 23.40097 | 21421 ft | 425 kts | 182° |
| 2026-04-22 19:31 | 39.00043 | 23.40486 | 20881 ft | 422 kts | 182° |
| 2026-04-22 19:32 | 38.97132 | 23.40870 | 20353 ft | 419 kts | 182° |
| 2026-04-22 19:32 | 38.94244 | 23.41250 | 19833 ft | 415 kts | 182° |
| 2026-04-22 19:32 | 38.91384 | 23.41625 | 19314 ft | 412 kts | 182° |
| 2026-04-22 19:32 | 38.88580 | 23.41992 | 18843 ft | 409 kts | 181° |
| 2026-04-22 19:33 | 38.85765 | 23.42360 | 18375 ft | 405 kts | 181° |
| 2026-04-22 19:33 | 38.82967 | 23.42725 | 17842 ft | 402 kts | 181° |
| 2026-04-22 19:33 | 38.80195 | 23.43088 | 17293 ft | 399 kts | 181° |
| 2026-04-22 19:33 | 38.77436 | 23.43447 | 16775 ft | 401 kts | 181° |
| 2026-04-22 19:34 | 38.74609 | 23.43805 | 16257 ft | 411 kts | 180° |
| 2026-04-22 19:34 | 38.71759 | 23.44169 | 15759 ft | 410 kts | 180° |
| 2026-04-22 19:34 | 38.68931 | 23.44537 | 15233 ft | 408 kts | 180° |
| 2026-04-22 19:34 | 38.66118 | 23.44906 | 14751 ft | 405 kts | 180° |
| 2026-04-22 19:35 | 38.63320 | 23.45277 | 14270 ft | 402 kts | 180° |
| 2026-04-22 19:35 | 38.60551 | 23.45646 | 13796 ft | 399 kts | 180° |
| 2026-04-22 19:35 | 38.58727 | 23.45887 | 13509 ft | 397 kts | 180° |
| 2026-04-22 19:35 | 38.55099 | 23.46362 | 12977 ft | 386 kts | 180° |
| 2026-04-22 19:36 | 38.52448 | 23.46708 | 12583 ft | 379 kts | 180° |
| 2026-04-22 19:36 | 38.49852 | 23.47047 | 12197 ft | 372 kts | 180° |
| 2026-04-22 19:36 | 38.47300 | 23.47378 | 11788 ft | 365 kts | 180° |
| 2026-04-22 19:36 | 38.44794 | 23.47701 | 11417 ft | 359 kts | 180° |
| 2026-04-22 19:37 | 38.42326 | 23.48016 | 11049 ft | 353 kts | 180° |
| 2026-04-22 19:37 | 38.39905 | 23.48331 | 10680 ft | 347 kts | 180° |
| 2026-04-22 19:37 | 38.37525 | 23.48642 | 10310 ft | 341 kts | 179° |
| 2026-04-22 19:37 | 38.35180 | 23.48944 | 9953 ft | 336 kts | 179° |
| 2026-04-22 19:38 | 38.32867 | 23.49240 | 9560 ft | 332 kts | 179° |
| 2026-04-22 19:38 | 38.30584 | 23.49530 | 9162 ft | 328 kts | 179° |
| 2026-04-22 19:38 | 38.28329 | 23.49819 | 8774 ft | 324 kts | 179° |
| 2026-04-22 19:38 | 38.26099 | 23.50106 | 8389 ft | 320 kts | 179° |
| 2026-04-22 19:39 | 38.23901 | 23.50388 | 8144 ft | 312 kts | 179° |
| 2026-04-22 19:39 | 38.21791 | 23.50664 | 8018 ft | 299 kts | 179° |
| 2026-04-22 19:39 | 38.19766 | 23.50930 | 7973 ft | 286 kts | 179° |
| 2026-04-22 19:39 | 38.17793 | 23.51186 | 7981 ft | 284 kts | 179° |
| 2026-04-22 19:40 | 38.15833 | 23.51437 | 7983 ft | 283 kts | 179° |
| 2026-04-22 19:40 | 38.13872 | 23.51686 | 7981 ft | 283 kts | 179° |
| 2026-04-22 19:40 | 38.11913 | 23.51933 | 7981 ft | 283 kts | 179° |
| 2026-04-22 19:40 | 38.09952 | 23.52180 | 7981 ft | 283 kts | 179° |
| 2026-04-22 19:41 | 38.07990 | 23.52430 | 7981 ft | 283 kts | 179° |
| 2026-04-22 19:41 | 38.06031 | 23.52679 | 7982 ft | 283 kts | 179° |
| 2026-04-22 19:41 | 38.04069 | 23.52927 | 7982 ft | 283 kts | 179° |
| 2026-04-22 19:41 | 38.02105 | 23.53174 | 7980 ft | 284 kts | 179° |
| 2026-04-22 19:42 | 38.00136 | 23.53424 | 7978 ft | 284 kts | 179° |
| 2026-04-22 19:42 | 37.98165 | 23.53675 | 7688 ft | 284 kts | 178° |
| 2026-04-22 19:42 | 37.96203 | 23.53927 | 7354 ft | 282 kts | 178° |
| 2026-04-22 19:42 | 37.94283 | 23.54178 | 7013 ft | 280 kts | 177° |
| 2026-04-22 19:43 | 37.90679 | 23.56016 | 6336 ft | 285 kts | 144° |
| 2026-04-22 19:43 | 37.89305 | 23.57831 | 5978 ft | 286 kts | 127° |
| 2026-04-22 19:43 | 37.88221 | 23.59927 | 5620 ft | 283 kts | 124° |
| 2026-04-22 19:44 | 37.87149 | 23.61997 | 5356 ft | 277 kts | 124° |
| 2026-04-22 19:44 | 37.86103 | 23.64003 | 5119 ft | 269 kts | 125° |
| 2026-04-22 19:44 | 37.85085 | 23.65947 | 4913 ft | 262 kts | 125° |
| 2026-04-22 19:44 | 37.84093 | 23.67839 | 4676 ft | 255 kts | 125° |
| 2026-04-22 19:45 | 37.83123 | 23.69685 | 4419 ft | 249 kts | 125° |
| 2026-04-22 19:45 | 37.82171 | 23.71498 | 4197 ft | 246 kts | 125° |
| 2026-04-22 19:45 | 37.81238 | 23.73277 | 3925 ft | 238 kts | 126° |
| 2026-04-22 19:45 | 37.80403 | 23.75034 | 3628 ft | 231 kts | 113° |
| 2026-04-22 19:46 | 37.80036 | 23.76940 | 3502 ft | 218 kts | 94° |
| 2026-04-22 19:46 | 37.80156 | 23.78785 | 3355 ft | 206 kts | 76° |
| 2026-04-22 19:46 | 37.80681 | 23.80428 | 3200 ft | 199 kts | 60° |
| 2026-04-22 19:46 | 37.81529 | 23.81772 | 2955 ft | 194 kts | 43° |
| 2026-04-22 19:47 | 37.82581 | 23.82811 | 2710 ft | 190 kts | 37° |
| 2026-04-22 19:47 | 37.83624 | 23.83798 | 2468 ft | 184 kts | 37° |
| 2026-04-22 19:47 | 37.84294 | 23.84432 | 2296 ft | 179 kts | 37° |
| 2026-04-22 19:47 | 37.85587 | 23.85658 | 1979 ft | 166 kts | 37° |
| 2026-04-22 19:48 | 37.86479 | 23.86503 | 1760 ft | 154 kts | 37° |
| 2026-04-22 19:48 | 37.87310 | 23.87293 | 1549 ft | 147 kts | 38° |
| 2026-04-22 19:48 | 37.88122 | 23.88080 | 1323 ft | 149 kts | 37° |
| 2026-04-22 19:48 | 37.88949 | 23.88883 | 1097 ft | 148 kts | 37° |
| 2026-04-22 19:49 | 37.89773 | 23.89626 | 912 ft | 144 kts | 36° |
| 2026-04-22 19:49 | 37.90570 | 23.90392 | 738 ft | 143 kts | 36° |
| 2026-04-22 19:49 | 37.91380 | 23.91149 | 557 ft | 146 kts | 37° |
| 2026-04-22 19:49 | 37.92174 | 23.91910 | 362 ft | 140 kts | 37° |
| 2026-04-22 19:50 | 37.92920 | 23.92624 | 272 ft | 122 kts | 37° |
| 2026-04-22 19:50 | 37.93485 | 23.93159 | 284 ft | 89 kts | 37° |
| 2026-04-22 19:50 | 37.93931 | 23.93586 | 284 ft | 73 kts | 37° |
| 2026-04-22 19:50 | 37.94200 | 23.93869 | 288 ft | 36 kts | 52° |
| 2026-04-22 19:51 | 37.94298 | 23.94122 | 293 ft | 30 kts | 66° |
| 2026-04-22 19:51 | 37.94415 | 23.94318 | 292 ft | 27 kts | 36° |
| 2026-04-22 19:51 | 37.94575 | 23.94471 | 294 ft | 29 kts | 37° |
| 2026-04-22 19:51 | 37.94681 | 23.94622 | 292 ft | 19 kts | 100° |
| 2026-04-22 19:52 | 37.94591 | 23.94785 | 294 ft | 28 kts | 127° |
| 2026-04-22 19:52 | 37.94454 | 23.95018 | 287 ft | 35 kts | 127° |
| 2026-04-22 19:52 | 37.94337 | 23.95210 | 284 ft | 11 kts | 127° |
| 2026-04-22 19:52 | 37.94372 | 23.95286 | 282 ft | 12 kts | 36° |
| 2026-04-22 19:53 | 37.94388 | 23.95301 | 283 ft | 0 kts | 36° |
| 2026-04-22 19:53 | 37.94389 | 23.95303 | 283 ft | 0 kts | 36° |
| 2026-04-22 19:53 | 37.94390 | 23.95303 | 283 ft | 0 kts | 36° |